Mamoudzou, Yemen
Current Conditions -  °F | °C
As of 4:00 AM on Wednesday 28 Jan 2015 (Local Time) from FMCZ Reporting Station
Light Rain Light Rain  
Wind Chill: 79°   Ceiling: 2100
Heat Index: 82°   Visibility: 6mi
Dew Point: 75°   Wind: 6mph
Humidity: 89%   Direction: 260°W
Pressure: 29.83"   Gusts: NA
Location:  12.8°S, 45.23°E
Report Text: FMCZ 280100Z AUTO 26005KT 220V290 9999 -RA FEW014///BKN021/// BKN027/// 26/24 Q1010
Loading
Personal Weather Stations






























Interactive Weather Map New forecast layout! Learn more

10-Day Weather Forecast

Advertisements
Track Severe Weather on mobile